createdAt,value
2022-09-01T00:01:39.361Z,14.48
2022-09-01T00:04:06.505Z,14.44
2022-09-01T00:06:34.530Z,14.35
2022-09-01T00:09:03.966Z,14.31
2022-09-01T00:11:31.357Z,14.20
2022-09-01T00:14:00.277Z,14.23
2022-09-01T00:16:27.918Z,14.19
2022-09-01T00:18:55.215Z,14.07
2022-09-01T00:21:25.306Z,14.11
2022-09-01T00:23:53.773Z,14.06
2022-09-01T00:26:20.760Z,14.03
2022-09-01T00:28:47.395Z,13.96
2022-09-01T00:31:14.550Z,14.00
2022-09-01T00:33:41.430Z,13.95
2022-09-01T00:36:08.454Z,13.81
2022-09-01T00:38:35.117Z,13.76
2022-09-01T00:41:03.959Z,13.87
2022-09-01T00:43:38.840Z,13.87
2022-09-01T00:46:07.669Z,13.93
2022-09-01T00:48:36.831Z,13.91
2022-09-01T00:51:06.147Z,13.84
2022-09-01T00:53:34.278Z,13.90
2022-09-01T00:56:03.451Z,13.71
2022-09-01T00:58:31.200Z,13.78
2022-09-01T01:00:57.962Z,13.83
2022-09-01T01:03:24.570Z,13.65
2022-09-01T01:05:55.972Z,13.79
2022-09-01T01:08:24.202Z,13.71
2022-09-01T01:10:50.901Z,13.81
2022-09-01T01:13:19.315Z,13.66
2022-09-01T01:15:45.886Z,13.75
2022-09-01T01:18:14.566Z,13.74
2022-09-01T01:20:43.754Z,13.71
2022-09-01T01:23:19.784Z,13.67
2022-09-01T01:25:50.841Z,13.68
2022-09-01T01:28:21.452Z,13.67
2022-09-01T01:30:55.748Z,13.46
2022-09-01T01:33:25.490Z,13.61
2022-09-01T01:35:53.717Z,13.63
2022-09-01T01:38:20.954Z,13.61
2022-09-01T01:40:52.242Z,13.57
2022-09-01T01:43:19.857Z,13.45
2022-09-01T01:45:46.540Z,13.69
2022-09-01T01:48:13.555Z,13.65
2022-09-01T01:50:40.460Z,13.64
2022-09-01T01:53:10.784Z,13.58
2022-09-01T01:55:37.949Z,13.66
2022-09-01T01:58:05.943Z,13.65
2022-09-01T02:00:32.875Z,13.64
2022-09-01T02:02:59.473Z,13.67
2022-09-01T02:05:28.661Z,13.66
2022-09-01T02:07:57.874Z,13.58
2022-09-01T02:10:28.232Z,13.59
2022-09-01T02:12:54.924Z,13.49
2022-09-01T02:15:22.851Z,13.55
2022-09-01T02:17:49.522Z,13.57
2022-09-01T02:20:16.253Z,13.59
2022-09-01T02:22:43.379Z,13.57
2022-09-01T02:25:10.246Z,13.50
2022-09-01T02:27:37.126Z,13.46
2022-09-01T02:30:04.856Z,13.32
2022-09-01T02:32:32.885Z,13.61
2022-09-01T02:34:59.505Z,13.63
2022-09-01T02:37:26.732Z,13.47
2022-09-01T02:39:53.360Z,13.57
2022-09-01T02:42:20.343Z,13.54
2022-09-01T02:44:46.901Z,13.51
2022-09-01T02:47:13.581Z,13.47
2022-09-01T02:49:41.605Z,13.45
2022-09-01T02:52:08.768Z,13.42
2022-09-01T02:54:35.354Z,13.41
2022-09-01T02:57:02.006Z,13.35
2022-09-01T02:59:29.566Z,13.25
2022-09-01T03:01:59.652Z,13.22
2022-09-01T03:04:26.579Z,13.17
2022-09-01T03:06:55.236Z,13.11
2022-09-01T03:09:22.916Z,13.03
2022-09-01T03:11:51.528Z,12.96
2022-09-01T03:14:18.996Z,12.82
2022-09-01T03:16:45.814Z,12.88
2022-09-01T03:19:13.278Z,12.80
2022-09-01T03:21:44.150Z,12.80
2022-09-01T03:24:16.390Z,12.73
2022-09-01T03:26:44.484Z,12.69
2022-09-01T03:29:11.780Z,12.63
2022-09-01T03:31:38.712Z,12.60
2022-09-01T03:34:06.599Z,12.43
2022-09-01T03:36:38.854Z,12.34
2022-09-01T03:39:06.178Z,12.48
2022-09-01T03:41:34.113Z,12.44
2022-09-01T03:44:00.804Z,12.40
2022-09-01T03:46:35.715Z,12.43
2022-09-01T03:49:03.744Z,12.35
2022-09-01T03:51:30.816Z,12.14
2022-09-01T03:54:00.076Z,12.17
2022-09-01T03:56:28.315Z,12.23
2022-09-01T03:58:59.613Z,12.14
2022-09-01T04:01:28.539Z,12.12
2022-09-01T04:03:56.353Z,12.10
2022-09-01T04:06:25.761Z,12.02
2022-09-01T04:08:53.373Z,11.97
2022-09-01T04:11:20.360Z,11.92
2022-09-01T04:13:49.021Z,11.89
2022-09-01T04:16:22.537Z,11.74
2022-09-01T04:18:49.461Z,11.75
2022-09-01T04:21:16.150Z,11.74
2022-09-01T04:23:42.941Z,11.73
2022-09-01T04:26:12.361Z,11.81
2022-09-01T04:28:41.001Z,11.77
2022-09-01T04:31:09.855Z,11.71
2022-09-01T04:33:40.109Z,11.69
2022-09-01T04:36:16.028Z,11.69
2022-09-01T04:38:43.463Z,11.67
2022-09-01T04:41:10.022Z,11.54
2022-09-01T04:43:36.643Z,11.65
2022-09-01T04:46:03.606Z,11.64
2022-09-01T04:48:30.271Z,11.62
2022-09-01T04:50:58.246Z,11.60
2022-09-01T04:53:28.558Z,11.59
2022-09-01T04:55:55.477Z,11.56
2022-09-01T04:58:24.311Z,11.56
2022-09-01T05:00:51.504Z,11.50
2022-09-01T05:03:19.218Z,11.41
2022-09-01T05:05:54.183Z,11.47
2022-09-01T05:08:23.379Z,11.47
2022-09-01T05:10:52.828Z,11.44
2022-09-01T05:13:30.197Z,11.45
2022-09-01T05:16:02.138Z,11.47
2022-09-01T05:18:29.339Z,11.46
2022-09-01T05:20:57.206Z,11.44
2022-09-01T05:23:26.081Z,11.32
2022-09-01T05:25:53.142Z,11.44
2022-09-01T05:28:20.768Z,11.54
2022-09-01T05:30:47.917Z,11.55
2022-09-01T05:33:19.903Z,11.57
2022-09-01T05:35:53.782Z,11.57
2022-09-01T05:38:20.682Z,11.37
2022-09-01T05:40:57.971Z,11.44
2022-09-01T05:43:24.898Z,11.64
2022-09-01T05:46:05.984Z,11.70
2022-09-01T05:48:35.314Z,11.77
2022-09-01T05:51:11.428Z,11.83
2022-09-01T05:53:50.413Z,11.79
2022-09-01T05:56:20.396Z,11.92
2022-09-01T06:01:34.646Z,11.98
2022-09-01T06:04:02.535Z,12.13
2022-09-01T06:06:48.959Z,12.19
2022-09-01T06:09:22.892Z,12.24
2022-09-01T06:11:53.781Z,12.42
2022-09-01T06:14:20.414Z,12.52
2022-09-01T06:16:48.690Z,12.61
2022-09-01T06:19:16.519Z,12.70
2022-09-01T06:21:46.637Z,12.79
2022-09-01T06:24:15.377Z,12.90
2022-09-01T06:26:42.172Z,12.99
2022-09-01T06:29:10.972Z,13.11
2022-09-01T06:31:44.352Z,13.23
2022-09-01T06:34:12.116Z,13.35
2022-09-01T06:36:39.494Z,13.48
2022-09-01T06:39:07.994Z,13.60
2022-09-01T06:41:35.948Z,13.72
2022-09-01T06:44:04.144Z,13.84
2022-09-01T06:46:32.238Z,13.98
2022-09-01T06:49:01.746Z,13.94
2022-09-01T06:51:28.350Z,14.23
2022-09-01T06:53:57.055Z,14.37
2022-09-01T06:56:30.972Z,14.52
2022-09-01T06:59:02.621Z,14.68
2022-09-01T07:01:29.641Z,14.81
2022-09-01T07:03:58.314Z,14.93
2022-09-01T07:09:48.043Z,15.30
2022-09-01T07:12:38.366Z,15.48
2022-09-01T07:17:54.294Z,15.77
2022-09-01T07:20:26.215Z,15.88
2022-09-01T07:23:03.943Z,16.08
2022-09-01T07:26:01.449Z,16.13
2022-09-01T07:28:36.163Z,16.27
2022-09-01T07:34:37.235Z,16.67
2022-09-01T07:46:00.752Z,17.55
2022-09-01T07:51:36.088Z,17.98
2022-09-01T07:54:06.326Z,18.12
2022-09-01T07:56:39.515Z,18.14
2022-09-01T07:59:07.468Z,18.44
2022-09-01T08:01:35.569Z,18.56
2022-09-01T08:04:03.577Z,18.71
2022-09-01T08:06:37.994Z,18.83
2022-09-01T08:09:06.774Z,18.99
2022-09-01T08:12:01.015Z,19.20
2022-09-01T08:14:26.020Z,19.39
2022-09-01T08:16:52.749Z,19.45
2022-09-01T08:19:20.042Z,19.54
2022-09-01T08:22:04.094Z,19.71
2022-09-01T08:24:54.679Z,19.83
2022-09-01T08:27:22.503Z,19.98
2022-09-01T08:29:49.197Z,20.11
2022-09-01T08:32:15.915Z,20.23
2022-09-01T08:34:42.736Z,20.25
2022-09-01T08:37:09.420Z,20.37
2022-09-01T08:39:39.082Z,20.35
2022-09-01T08:42:15.419Z,20.50
2022-09-01T08:44:54.369Z,20.71
2022-09-01T08:47:35.443Z,20.83
2022-09-01T08:50:08.736Z,20.92
2022-09-01T08:53:11.012Z,21.02
2022-09-01T08:55:41.727Z,21.10
2022-09-01T08:58:15.331Z,21.23
2022-09-01T09:01:08.400Z,21.31
2022-09-01T09:03:42.756Z,21.48
2022-09-01T09:06:15.245Z,21.63
2022-09-01T09:08:52.914Z,21.70
2022-09-01T09:11:35.816Z,21.87
2022-09-01T09:14:10.865Z,21.94
2022-09-01T09:16:40.361Z,22.03
2022-09-01T09:19:10.466Z,22.07
2022-09-01T09:21:41.240Z,22.20
2022-09-01T09:24:16.586Z,22.23
2022-09-01T09:26:49.140Z,22.33
2022-09-01T09:29:17.241Z,22.39
2022-09-01T09:31:45.936Z,22.33
2022-09-01T09:34:31.976Z,22.53
2022-09-01T09:37:01.957Z,22.64
2022-09-01T09:39:29.507Z,22.72
2022-09-01T09:42:06.946Z,22.87
2022-09-01T09:44:42.744Z,22.85
2022-09-01T09:47:27.253Z,23.08
2022-09-01T09:52:37.998Z,23.18
2022-09-01T09:55:07.097Z,23.21
2022-09-01T09:57:39.778Z,23.23
2022-09-01T10:00:20.689Z,23.43
2022-09-01T10:02:56.862Z,23.47
2022-09-01T10:05:38.295Z,23.49
2022-09-01T10:08:06.885Z,23.57
2022-09-01T10:10:38.811Z,23.52
2022-09-01T10:13:08.994Z,23.75
2022-09-01T10:15:38.358Z,23.81
2022-09-01T10:18:28.965Z,23.98
2022-09-01T10:20:58.655Z,24.01
2022-09-01T10:23:27.248Z,24.12
2022-09-01T10:26:06.037Z,24.31
2022-09-01T10:28:38.411Z,24.39
2022-09-01T10:31:09.140Z,24.51
2022-09-01T10:33:37.028Z,24.53
2022-09-01T10:36:07.831Z,24.64
2022-09-01T10:38:35.103Z,24.72
2022-09-01T10:41:01.867Z,24.74
2022-09-01T10:43:40.321Z,24.56
2022-09-01T10:46:41.909Z,24.66
2022-09-01T10:49:25.222Z,24.61
2022-09-01T10:51:57.055Z,24.55
2022-09-01T10:54:55.765Z,24.55
2022-09-01T10:57:48.681Z,24.39
2022-09-01T11:01:15.584Z,24.39
2022-09-01T11:03:57.105Z,24.43
2022-09-01T11:07:11.529Z,24.55
2022-09-01T11:09:34.729Z,24.56
2022-09-01T11:12:17.656Z,24.49
2022-09-01T11:14:58.279Z,24.33
2022-09-01T11:17:27.744Z,24.28
2022-09-01T11:19:59.085Z,24.37
2022-09-01T11:22:30.859Z,24.38
2022-09-01T11:25:38.366Z,24.33
2022-09-01T11:28:35.765Z,24.30
2022-09-01T11:31:34.657Z,24.23
2022-09-01T11:34:10.545Z,24.25
2022-09-01T11:36:51.426Z,24.19
2022-09-01T11:39:27.962Z,24.22
2022-09-01T11:42:03.584Z,24.01
2022-09-01T11:44:38.753Z,24.06
2022-09-01T11:47:12.106Z,24.09
2022-09-01T11:49:48.521Z,24.13
2022-09-01T11:52:18.608Z,24.18
2022-09-01T11:54:45.941Z,24.28
2022-09-01T11:57:22.049Z,24.32
2022-09-01T11:59:48.929Z,24.39
2022-09-01T12:02:20.503Z,24.43
2022-09-01T12:04:47.505Z,24.52
2022-09-01T12:07:27.137Z,24.55
2022-09-01T12:09:54.030Z,24.61
2022-09-01T12:12:33.392Z,24.64
2022-09-01T12:15:06.118Z,24.65
2022-09-01T12:17:34.231Z,24.64
2022-09-01T12:20:33.239Z,24.61
2022-09-01T12:23:01.683Z,24.38
2022-09-01T12:25:30.994Z,24.43
2022-09-01T12:28:00.046Z,24.53
2022-09-01T12:30:26.961Z,24.65
2022-09-01T12:33:22.845Z,24.85
2022-09-01T12:35:41.496Z,24.92
2022-09-01T12:38:25.521Z,25.04
2022-09-01T12:40:53.862Z,24.98
2022-09-01T12:43:35.210Z,24.81
2022-09-01T12:46:02.922Z,24.77
2022-09-01T12:48:33.800Z,24.77
2022-09-01T12:51:02.538Z,24.73
2022-09-01T12:53:36.577Z,24.87
2022-09-01T12:56:26.719Z,24.87
2022-09-01T12:59:07.762Z,24.88
2022-09-01T13:01:42.213Z,24.79
2022-09-01T13:04:15.282Z,24.97
2022-09-01T13:06:42.064Z,25.06
2022-09-01T13:09:10.380Z,25.03
2022-09-01T13:14:23.803Z,24.98
2022-09-01T13:16:51.194Z,25.22
2022-09-01T13:19:26.510Z,25.36
2022-09-01T13:21:54.296Z,25.38
2022-09-01T13:24:26.406Z,25.33
2022-09-01T13:29:41.915Z,25.60
2022-09-01T13:32:24.356Z,25.85
2022-09-01T13:34:53.181Z,26.07
2022-09-01T13:37:20.860Z,26.15
2022-09-01T13:39:49.167Z,26.31
2022-09-01T13:42:16.444Z,26.47
2022-09-01T13:44:44.131Z,26.37
2022-09-01T13:50:07.531Z,26.56
2022-09-01T13:52:35.174Z,26.80
2022-09-01T13:55:03.636Z,26.97
2022-09-01T13:57:31.593Z,27.04
2022-09-01T14:00:05.306Z,26.97
2022-09-01T14:02:36.986Z,26.92
2022-09-01T14:05:04.147Z,26.92
2022-09-01T14:07:30.849Z,27.03
2022-09-01T14:09:57.454Z,26.84
2022-09-01T14:12:25.474Z,26.66
2022-09-01T14:17:38.977Z,26.46
2022-09-01T14:20:08.455Z,26.33
2022-09-01T14:22:38.452Z,26.40
2022-09-01T14:25:06.169Z,26.78
2022-09-01T14:27:34.460Z,26.98
2022-09-01T14:30:01.069Z,26.98
2022-09-01T14:32:27.740Z,26.90
2022-09-01T14:34:55.379Z,26.73
2022-09-01T14:37:22.593Z,26.64
2022-09-01T14:39:50.130Z,26.34
2022-09-01T14:42:17.219Z,26.62
2022-09-01T14:44:48.705Z,26.64
2022-09-01T14:47:19.390Z,26.71
2022-09-01T14:49:47.713Z,27.54
2022-09-01T14:52:14.566Z,27.65
2022-09-01T14:54:42.239Z,27.69
2022-09-01T14:59:58.246Z,27.47
2022-09-01T15:02:25.536Z,27.37
2022-09-01T15:04:52.547Z,27.15
2022-09-01T15:07:19.486Z,27.25
2022-09-01T15:09:46.383Z,27.63
2022-09-01T15:12:13.326Z,27.89
2022-09-01T15:14:40.288Z,28.11
2022-09-01T15:17:08.353Z,28.32
2022-09-01T15:19:34.976Z,28.37
2022-09-01T15:22:02.508Z,28.46
2022-09-01T15:24:29.199Z,28.68
2022-09-01T15:26:55.854Z,28.62
2022-09-01T15:29:22.719Z,28.61
2022-09-01T15:31:49.535Z,28.51
2022-09-01T15:34:17.706Z,28.39
2022-09-01T15:36:44.635Z,28.40
2022-09-01T15:39:11.854Z,28.50
2022-09-01T15:41:38.662Z,28.67
2022-09-01T15:44:07.374Z,28.75
2022-09-01T15:46:34.575Z,28.79
2022-09-01T15:49:03.434Z,29.02
2022-09-01T15:51:34.227Z,29.18
2022-09-01T15:54:02.322Z,29.40
2022-09-01T15:56:29.631Z,29.39
2022-09-01T15:59:03.377Z,29.52
2022-09-01T16:01:32.414Z,29.58
2022-09-01T16:03:59.947Z,29.62
2022-09-01T16:06:27.414Z,29.68
2022-09-01T16:08:55.688Z,29.80
2022-09-01T16:11:23.693Z,29.98
2022-09-01T16:13:52.449Z,30.09
2022-09-01T16:16:41.359Z,30.20
2022-09-01T16:19:20.243Z,30.39
2022-09-01T16:21:54.333Z,30.81
2022-09-01T16:24:22.563Z,30.94
2022-09-01T16:26:49.682Z,31.05
2022-09-01T16:29:26.071Z,31.17
2022-09-01T16:31:56.127Z,31.41
2022-09-01T16:34:27.720Z,31.51
2022-09-01T16:37:04.489Z,31.77
2022-09-01T16:39:43.636Z,31.76
2022-09-01T16:42:21.025Z,31.69
2022-09-01T16:44:57.471Z,31.70
2022-09-01T16:47:36.334Z,31.58
2022-09-01T16:50:13.031Z,31.56
2022-09-01T16:52:56.053Z,31.30
2022-09-01T16:55:32.222Z,31.09
2022-09-01T16:58:09.186Z,31.01
2022-09-01T17:00:46.584Z,30.90
2022-09-01T17:03:18.052Z,30.76
2022-09-01T17:05:54.364Z,30.55
2022-09-01T17:08:24.530Z,30.26
2022-09-01T17:10:57.926Z,29.84
2022-09-01T17:13:33.220Z,29.44
2022-09-01T17:16:04.109Z,29.13
2022-09-01T17:18:34.543Z,28.73
2022-09-01T17:21:06.891Z,28.41
2022-09-01T17:23:38.400Z,28.03
2022-09-01T17:26:15.990Z,27.83
2022-09-01T17:28:47.830Z,27.66
2022-09-01T17:31:23.070Z,27.31
2022-09-01T17:34:00.944Z,26.92
2022-09-01T17:36:39.808Z,26.68
2022-09-01T17:39:22.173Z,26.27
2022-09-01T17:41:58.572Z,26.19
2022-09-01T17:44:32.514Z,25.95
2022-09-01T17:47:10.085Z,25.71
2022-09-01T17:49:44.110Z,25.39
2022-09-01T17:52:17.941Z,25.27
2022-09-01T17:54:54.429Z,25.06
2022-09-01T17:57:30.184Z,24.82
2022-09-01T18:00:02.099Z,24.65
2022-09-01T18:03:13.131Z,24.42
2022-09-01T18:05:42.562Z,24.15
2022-09-01T18:08:26.922Z,23.89
2022-09-01T18:10:58.809Z,23.65
2022-09-01T18:13:52.512Z,23.49
2022-09-01T18:16:23.381Z,23.20
2022-09-01T18:18:51.868Z,22.96
2022-09-01T18:21:20.195Z,22.73
2022-09-01T18:23:50.499Z,22.61
2022-09-01T18:26:23.246Z,22.43
2022-09-01T18:28:53.099Z,22.24
2022-09-01T18:31:41.843Z,22.04
2022-09-01T18:34:14.917Z,21.82
2022-09-01T18:36:49.472Z,21.50
2022-09-01T18:39:25.380Z,21.48
2022-09-01T18:42:04.615Z,21.22
2022-09-01T18:44:50.578Z,21.09
2022-09-01T18:47:31.713Z,20.78
2022-09-01T18:50:06.390Z,20.84
2022-09-01T18:52:50.924Z,20.68
2022-09-01T18:55:23.652Z,20.55
2022-09-01T18:57:53.490Z,20.45
2022-09-01T19:00:26.298Z,20.29
2022-09-01T19:03:13.622Z,20.17
2022-09-01T19:06:01.186Z,19.98
2022-09-01T19:08:43.403Z,19.92
2022-09-01T19:11:16.621Z,19.72
2022-09-01T19:13:53.341Z,19.70
2022-09-01T19:16:37.518Z,19.60
2022-09-01T19:19:18.321Z,19.49
2022-09-01T19:21:48.094Z,19.38
2022-09-01T19:24:25.077Z,19.28
2022-09-01T19:26:56.642Z,19.14
2022-09-01T19:29:25.397Z,19.03
2022-09-01T19:31:57.119Z,18.91
2022-09-01T19:34:28.086Z,18.82
2022-09-01T19:36:57.077Z,18.75
2022-09-01T19:39:26.362Z,18.69
2022-09-01T19:41:59.649Z,18.64
2022-09-01T19:44:40.182Z,18.51
2022-09-01T19:47:13.134Z,18.48
2022-09-01T19:49:44.602Z,18.44
2022-09-01T19:52:23.599Z,18.36
2022-09-01T19:54:55.626Z,18.32
2022-09-01T19:57:32.381Z,18.25
2022-09-01T20:00:06.002Z,18.23
2022-09-01T20:02:38.221Z,18.16
2022-09-01T20:05:16.912Z,18.00
2022-09-01T20:07:51.408Z,18.05
2022-09-01T20:10:27.241Z,17.97
2022-09-01T20:13:05.878Z,18.00
2022-09-01T20:15:40.111Z,17.97
2022-09-01T20:18:19.925Z,17.88
2022-09-01T20:20:48.422Z,17.82
2022-09-01T20:23:23.853Z,17.84
2022-09-01T20:25:55.086Z,17.83
2022-09-01T20:28:30.914Z,17.82
2022-09-01T20:31:03.247Z,17.77
2022-09-01T20:33:37.236Z,17.72
2022-09-01T20:36:09.325Z,17.68
2022-09-01T20:38:44.927Z,17.67
2022-09-01T20:41:18.106Z,17.49
2022-09-01T20:43:47.924Z,17.59
2022-09-01T20:46:17.800Z,17.58
2022-09-01T20:48:46.082Z,17.46
2022-09-01T20:51:18.048Z,17.55
2022-09-01T20:54:00.765Z,17.54
2022-09-01T20:56:39.362Z,17.55
2022-09-01T20:59:12.674Z,17.58
2022-09-01T21:01:47.164Z,17.59
2022-09-01T21:04:31.107Z,17.65
2022-09-01T21:07:03.512Z,17.66
2022-09-01T21:09:39.501Z,17.71
2022-09-01T21:12:08.732Z,17.76
2022-09-01T21:14:47.549Z,17.86
2022-09-01T21:17:23.389Z,17.94
2022-09-01T21:19:59.430Z,18.04
2022-09-01T21:22:27.832Z,18.07
2022-09-01T21:24:54.487Z,18.12
2022-09-01T21:27:24.252Z,18.23
2022-09-01T21:29:56.440Z,18.23
2022-09-01T21:32:23.093Z,18.18
2022-09-01T21:34:50.281Z,18.16
2022-09-01T21:37:18.723Z,18.28
2022-09-01T21:39:45.253Z,18.26
2022-09-01T21:42:13.382Z,18.20
2022-09-01T21:44:41.024Z,18.27
2022-09-01T21:47:07.669Z,18.22
2022-09-01T21:49:34.233Z,18.25
2022-09-01T21:52:00.822Z,18.27
2022-09-01T21:54:28.728Z,18.32
2022-09-01T21:56:55.429Z,18.31
2022-09-01T21:59:22.287Z,18.36
2022-09-01T22:01:49.035Z,18.36
2022-09-01T22:04:17.747Z,18.31
2022-09-01T22:06:45.769Z,18.36
2022-09-01T22:09:20.499Z,18.31
2022-09-01T22:11:51.018Z,18.31
2022-09-01T22:14:18.297Z,18.34
2022-09-01T22:16:44.971Z,18.29
2022-09-01T22:19:11.567Z,18.42
2022-09-01T22:21:40.282Z,18.38
2022-09-01T22:24:07.912Z,18.46
2022-09-01T22:26:35.345Z,18.45
2022-09-01T22:29:05.838Z,18.47
2022-09-01T22:31:34.879Z,18.43
2022-09-01T22:34:01.487Z,18.43
2022-09-01T22:36:30.288Z,18.47
2022-09-01T22:38:57.571Z,18.43
2022-09-01T22:41:25.653Z,18.44
2022-09-01T22:43:52.702Z,18.30
2022-09-01T22:46:21.127Z,18.41
2022-09-01T22:48:48.696Z,18.39
2022-09-01T22:51:15.362Z,18.31
2022-09-01T22:53:43.416Z,18.32
2022-09-01T22:56:11.854Z,18.31
2022-09-01T22:58:38.476Z,18.13
2022-09-01T23:01:10.466Z,18.23
2022-09-01T23:03:38.812Z,18.13
2022-09-01T23:06:07.568Z,18.06
2022-09-01T23:08:34.591Z,18.16
2022-09-01T23:11:01.419Z,18.13
2022-09-01T23:13:28.059Z,18.01
2022-09-01T23:15:55.178Z,18.02
2022-09-01T23:18:22.199Z,17.95
2022-09-01T23:20:50.159Z,17.86
2022-09-01T23:23:17.224Z,17.75
2022-09-01T23:25:44.086Z,17.69
2022-09-01T23:28:11.135Z,17.61
2022-09-01T23:30:40.494Z,17.52
2022-09-01T23:33:07.213Z,17.44
2022-09-01T23:35:33.985Z,17.35
2022-09-01T23:38:02.038Z,17.24
2022-09-01T23:40:28.688Z,17.15
2022-09-01T23:42:55.326Z,17.07
2022-09-01T23:45:21.933Z,16.99
2022-09-01T23:47:48.571Z,16.92
2022-09-01T23:50:15.108Z,16.86
2022-09-01T23:52:41.775Z,16.78
2022-09-01T23:55:10.105Z,16.70
2022-09-01T23:57:36.706Z,16.64
